Terminal Aerodrome Forecast
Issued by NWS

Home | Current Version | Previous Version | Text Only | Print | Product List | Glossary On
Versions: 1 2 3 4 5 6 7 8 9 10 11 12 13 14 15 16 17 18 19 20 21 22 23 24 25 26 27 28 29
000
FTUS45 KBOU 211016 AAB
TAFAPA
TAF AMD
KAPA 211016Z 2110/2206 34009KT P6SM FEW090 SCT140
     FM211300 03013KT P6SM SCT080 BKN140
     FM211600 07008KT P6SM FEW080 SCT160
     FM212000 13010KT P6SM SCT080 SCT120
     FM220300 17013KT P6SM FEW120=

USA.gov is the U.S. government's official web portal to all federal, state and local government web resources and services.